99TN weather

Haywood County Ems Heliport
Brownsville, Tennessee, United States

Public forecast

Using degrees Fahrenheit for public forecast. Weather courtesy of forecast.io.

METAR (pilot weather report)

Closest report is McKellar-Sipes Regional Airport, 15.7 nm (29.1 km) E. Retrieved 2019/09/18 15:53 UTC (1 hour ago):

KMKL 181553Z 00000KT 10SM CLR 32/20 A3004 RMK AO2 SLP166 T03220200

TAF (pilot weather forecast)

Closest forecast is McKellar-Sipes Regional Airport, 15.7 nm (29.1 km) E. Retrieved 2019/09/18 12:27 UTC (5 hours ago):

TAF KMKL 181124Z 1812/1912 00000KT P6SM SKC TEMPO 1812/1813 3SM BR FM181700 02005KT P6SM FEW060 FM190000 00000KT P6SM SKC